Terminal Aerodrome Forecast
Issued by NWS Paducah, KY

Home | Current Version | Previous Version | Graphics & Text | Print | Product List | Glossary On
Versions: 1 2 3 4 5 6 7 8 9 10 11 12 13 14 15 16 17 18 19 20 21 22 23 24
000
FTUS43 KPAH 011700
TAFPAH
TAF
KPAH 011720Z 0118/0218 23012G22KT P6SM FEW025 SCT035 BKN150
     FM020000 19007KT P6SM FEW050 BKN150
     FM020900 21006KT P6SM BKN050 PROB30 0209/0215 3SM TSRA BR
      BKN020CB=

USA.gov is the U.S. government's official web portal to all federal, state and local government web resources and services.